createdAt,value
2023-02-19T00:01:46.679Z,9.80
2023-02-19T00:04:14.689Z,9.80
2023-02-19T00:06:42.149Z,9.80
2023-02-19T00:09:12.481Z,9.80
2023-02-19T00:11:39.461Z,9.80
2023-02-19T00:14:10.540Z,9.80
2023-02-19T00:16:39.074Z,9.70
2023-02-19T00:19:07.709Z,9.70
2023-02-19T00:21:34.736Z,9.70
2023-02-19T00:24:07.225Z,9.70
2023-02-19T00:26:34.070Z,9.70
2023-02-19T00:29:01.042Z,9.70
2023-02-19T00:31:33.018Z,9.70
2023-02-19T00:34:03.812Z,9.70
2023-02-19T00:36:35.880Z,9.60
2023-02-19T00:39:03.459Z,9.60
2023-02-19T00:41:30.607Z,9.70
2023-02-19T00:44:05.582Z,9.70
2023-02-19T00:46:45.903Z,9.70
2023-02-19T00:49:21.317Z,9.70
2023-02-19T00:51:48.947Z,9.70
2023-02-19T00:54:15.866Z,9.70
2023-02-19T00:56:42.587Z,9.70
2023-02-19T00:59:09.633Z,9.60
2023-02-19T01:01:36.470Z,9.60
2023-02-19T01:04:06.177Z,9.60
2023-02-19T01:06:34.642Z,9.60
2023-02-19T01:09:01.812Z,9.60
2023-02-19T01:11:28.550Z,9.50
2023-02-19T01:14:00.108Z,9.50
2023-02-19T01:16:27.573Z,9.50
2023-02-19T01:18:54.420Z,9.50
2023-02-19T01:21:22.703Z,9.50
2023-02-19T01:23:49.944Z,9.60
2023-02-19T01:26:21.600Z,9.50
2023-02-19T01:28:48.592Z,9.50
2023-02-19T01:31:17.325Z,9.40
2023-02-19T01:33:52.005Z,9.40
2023-02-19T01:36:18.975Z,9.50
2023-02-19T01:38:45.820Z,9.50
2023-02-19T01:41:15.658Z,9.50
2023-02-19T01:44:02.202Z,9.50
2023-02-19T01:46:30.245Z,9.60
2023-02-19T01:49:02.567Z,9.60
2023-02-19T01:51:29.296Z,9.60
2023-02-19T01:53:57.454Z,9.60
2023-02-19T01:56:24.110Z,9.60
2023-02-19T01:58:50.791Z,9.60
2023-02-19T02:01:17.465Z,9.60
2023-02-19T02:03:45.458Z,9.60
2023-02-19T02:06:26.141Z,9.50
2023-02-19T02:09:15.294Z,9.50
2023-02-19T02:11:45.593Z,9.50
2023-02-19T02:14:12.334Z,9.50
2023-02-19T02:17:07.993Z,9.40
2023-02-19T02:20:02.264Z,9.30
2023-02-19T02:22:38.405Z,9.20
2023-02-19T02:25:30.284Z,9.20
2023-02-19T02:28:02.316Z,9.20
2023-02-19T02:30:41.877Z,9.10
2023-02-19T02:33:22.217Z,9.10
2023-02-19T02:36:17.177Z,9.10
2023-02-19T02:38:45.131Z,9.10
2023-02-19T02:41:12.979Z,9.10
2023-02-19T02:43:39.821Z,9.10
2023-02-19T02:46:06.644Z,9.00
2023-02-19T02:48:44.936Z,9.00
2023-02-19T02:51:19.415Z,9.00
2023-02-19T02:54:28.266Z,9.00
2023-02-19T02:56:54.963Z,8.80
2023-02-19T02:59:26.110Z,8.90
2023-02-19T03:02:11.478Z,8.80
2023-02-19T03:05:03.374Z,8.80
2023-02-19T03:07:44.311Z,8.80
2023-02-19T03:10:13.659Z,8.70
2023-02-19T03:12:59.216Z,8.70
2023-02-19T03:15:46.953Z,8.70
2023-02-19T03:18:32.323Z,8.70
2023-02-19T03:20:59.408Z,8.70
2023-02-19T03:23:47.709Z,8.70
2023-02-19T03:26:14.466Z,8.80
2023-02-19T03:29:00.490Z,8.80
2023-02-19T03:31:28.374Z,8.80
2023-02-19T03:33:57.624Z,8.80
2023-02-19T03:36:26.856Z,8.80
2023-02-19T03:38:59.924Z,8.80
2023-02-19T03:41:42.264Z,8.80
2023-02-19T03:44:59.568Z,8.80
2023-02-19T03:47:33.833Z,8.80
2023-02-19T03:50:06.907Z,8.80
2023-02-19T03:52:42.249Z,8.80
2023-02-19T03:55:31.998Z,8.80
2023-02-19T03:58:04.453Z,8.70
2023-02-19T04:00:45.232Z,8.70
2023-02-19T04:03:19.110Z,8.70
2023-02-19T04:05:48.876Z,8.70
2023-02-19T04:08:17.817Z,8.60
2023-02-19T04:10:45.519Z,8.70
2023-02-19T04:13:18.516Z,8.60
2023-02-19T04:15:45.280Z,8.60
2023-02-19T04:18:18.019Z,8.60
2023-02-19T04:20:45.468Z,8.50
2023-02-19T04:23:12.840Z,8.50
2023-02-19T04:25:40.212Z,8.50
2023-02-19T04:28:08.284Z,8.50
2023-02-19T04:30:35.051Z,8.60
2023-02-19T04:33:01.908Z,8.60
2023-02-19T04:35:28.674Z,8.60
2023-02-19T04:37:55.951Z,8.60
2023-02-19T04:40:22.630Z,8.60
2023-02-19T04:42:49.300Z,8.70
2023-02-19T04:45:16.086Z,8.70
2023-02-19T04:47:42.991Z,8.70
2023-02-19T04:50:09.735Z,8.70
2023-02-19T04:52:36.531Z,8.70
2023-02-19T04:55:03.284Z,8.70
2023-02-19T04:57:29.939Z,8.80
2023-02-19T04:59:56.603Z,8.80
2023-02-19T05:02:23.303Z,8.80
2023-02-19T05:04:50.105Z,8.90
2023-02-19T05:07:16.819Z,8.90
2023-02-19T05:09:43.476Z,8.90
2023-02-19T05:12:10.125Z,8.90
2023-02-19T05:14:36.797Z,8.90
2023-02-19T05:17:03.483Z,9.00
2023-02-19T05:19:30.267Z,9.00
2023-02-19T05:21:57.043Z,9.00
2023-02-19T05:24:24.427Z,9.00
2023-02-19T05:26:51.297Z,9.00
2023-02-19T05:29:18.040Z,9.00
2023-02-19T05:31:44.761Z,9.00
2023-02-19T05:34:11.611Z,8.90
2023-02-19T05:36:38.902Z,8.90
2023-02-19T05:39:07.320Z,8.80
2023-02-19T05:41:34.023Z,8.80
2023-02-19T05:44:00.740Z,8.80
2023-02-19T05:46:29.653Z,8.80
2023-02-19T05:48:56.829Z,8.80
2023-02-19T05:51:24.289Z,8.70
2023-02-19T05:53:51.247Z,8.60
2023-02-19T05:56:24.496Z,8.60
2023-02-19T05:58:51.262Z,8.60
2023-02-19T06:01:18.433Z,8.60
2023-02-19T06:03:45.228Z,8.60
2023-02-19T06:06:15.896Z,8.60
2023-02-19T06:08:42.646Z,8.60
2023-02-19T06:11:09.707Z,8.60
2023-02-19T06:13:36.545Z,8.60
2023-02-19T06:16:06.877Z,8.60
2023-02-19T06:18:33.881Z,8.50
2023-02-19T06:21:02.031Z,8.50
2023-02-19T06:23:29.564Z,8.40
2023-02-19T06:26:05.078Z,8.40
2023-02-19T06:28:31.734Z,8.40
2023-02-19T06:30:58.972Z,8.40
2023-02-19T06:33:27.401Z,8.30
2023-02-19T06:35:54.445Z,8.30
2023-02-19T06:38:21.882Z,8.30
2023-02-19T06:40:48.597Z,8.20
2023-02-19T06:43:15.276Z,8.20
2023-02-19T06:45:41.950Z,8.20
2023-02-19T06:48:08.697Z,8.20
2023-02-19T06:50:35.377Z,8.20
2023-02-19T06:53:02.275Z,8.10
2023-02-19T06:55:29.027Z,8.10
2023-02-19T06:57:55.732Z,8.10
2023-02-19T07:00:22.571Z,8.10
2023-02-19T07:02:49.865Z,8.10
2023-02-19T07:05:16.569Z,8.10
2023-02-19T07:07:45.854Z,8.20
2023-02-19T07:10:12.967Z,8.20
2023-02-19T07:12:39.690Z,8.10
2023-02-19T07:15:06.667Z,8.10
2023-02-19T07:17:34.728Z,8.00
2023-02-19T07:20:01.434Z,7.90
2023-02-19T07:22:28.159Z,8.00
2023-02-19T07:24:54.969Z,7.90
2023-02-19T07:27:21.669Z,7.90
2023-02-19T07:29:48.365Z,7.90
2023-02-19T07:32:15.022Z,8.00
2023-02-19T07:34:41.704Z,8.00
2023-02-19T07:37:08.633Z,8.00
2023-02-19T07:39:35.364Z,8.00
2023-02-19T07:42:02.025Z,8.10
2023-02-19T07:44:28.735Z,8.00
2023-02-19T07:46:55.416Z,8.10
2023-02-19T07:49:22.111Z,8.00
2023-02-19T07:51:48.841Z,8.10
2023-02-19T07:54:15.535Z,8.10
2023-02-19T07:56:42.396Z,8.00
2023-02-19T07:59:09.086Z,8.10
2023-02-19T08:01:54.611Z,8.10
2023-02-19T08:04:21.360Z,8.20
2023-02-19T08:06:48.033Z,8.20
2023-02-19T08:09:14.707Z,8.20
2023-02-19T08:12:00.209Z,8.20
2023-02-19T08:14:27.461Z,8.20
2023-02-19T08:16:54.313Z,8.20
2023-02-19T08:19:21.185Z,8.30
2023-02-19T08:21:48.046Z,8.40
2023-02-19T08:24:14.749Z,8.30
2023-02-19T08:26:41.495Z,8.20
2023-02-19T08:29:08.208Z,8.20
2023-02-19T08:31:35.158Z,8.20
2023-02-19T08:34:01.990Z,8.20
2023-02-19T08:36:28.861Z,8.30
2023-02-19T08:38:55.590Z,8.30
2023-02-19T08:41:22.373Z,8.40
2023-02-19T08:43:49.141Z,8.40
2023-02-19T08:46:15.956Z,8.30
2023-02-19T08:48:42.695Z,8.40
2023-02-19T08:51:10.662Z,8.40
2023-02-19T08:53:38.450Z,8.50
2023-02-19T08:56:15.527Z,8.50
2023-02-19T08:58:42.408Z,8.50
2023-02-19T09:01:14.763Z,8.50
2023-02-19T09:03:41.719Z,8.50
2023-02-19T09:06:11.026Z,8.60
2023-02-19T09:08:37.866Z,8.60
2023-02-19T09:11:06.978Z,8.60
2023-02-19T09:13:33.690Z,8.70
2023-02-19T09:16:00.445Z,8.70
2023-02-19T09:18:27.341Z,8.60
2023-02-19T09:20:54.082Z,8.70
2023-02-19T09:23:20.782Z,8.90
2023-02-19T09:25:47.501Z,9.20
2023-02-19T09:28:14.234Z,9.40
2023-02-19T09:30:41.061Z,9.50
2023-02-19T09:33:07.804Z,9.50
2023-02-19T09:35:34.488Z,9.40
2023-02-19T09:38:02.019Z,9.40
2023-02-19T09:40:29.856Z,9.30
2023-02-19T09:42:56.576Z,9.50
2023-02-19T09:45:24.262Z,9.50
2023-02-19T09:47:54.203Z,9.50
2023-02-19T09:50:22.899Z,9.50
2023-02-19T09:52:57.602Z,9.60
2023-02-19T09:55:32.026Z,9.60
2023-02-19T09:57:59.566Z,9.60
2023-02-19T10:00:27.818Z,9.70
2023-02-19T10:02:57.903Z,9.70
2023-02-19T10:05:24.949Z,9.70
2023-02-19T10:07:53.020Z,9.80
2023-02-19T10:10:29.370Z,9.80
2023-02-19T10:13:00.104Z,9.90
2023-02-19T10:15:38.681Z,9.90
2023-02-19T10:18:05.652Z,10.00
2023-02-19T10:20:32.385Z,10.00
2023-02-19T10:23:03.738Z,10.10
2023-02-19T10:25:30.913Z,10.00
2023-02-19T10:28:01.270Z,10.10
2023-02-19T10:30:37.394Z,10.10
2023-02-19T10:33:10.938Z,10.20
2023-02-19T10:35:57.543Z,10.10
2023-02-19T10:38:28.207Z,10.10
2023-02-19T10:40:59.920Z,10.00
2023-02-19T10:43:33.099Z,10.00
2023-02-19T10:46:26.267Z,10.00
2023-02-19T10:49:20.424Z,9.90
2023-02-19T10:51:47.862Z,9.90
2023-02-19T10:54:24.345Z,10.10
2023-02-19T10:56:51.012Z,10.10
2023-02-19T10:59:25.729Z,10.20
2023-02-19T11:01:59.016Z,10.20
2023-02-19T11:04:27.159Z,10.30
2023-02-19T11:06:54.128Z,10.30
2023-02-19T11:09:40.490Z,10.50
2023-02-19T11:12:08.510Z,10.60
2023-02-19T11:14:36.341Z,10.70
2023-02-19T11:17:06.628Z,10.80
2023-02-19T11:19:40.000Z,10.80
2023-02-19T11:22:32.808Z,10.90
2023-02-19T11:25:06.542Z,11.00
2023-02-19T11:27:33.592Z,11.00
2023-02-19T11:30:33.976Z,10.90
2023-02-19T11:33:19.705Z,10.70
2023-02-19T11:35:54.230Z,10.70
2023-02-19T11:38:21.850Z,10.70
2023-02-19T11:41:11.375Z,10.70
2023-02-19T11:44:07.735Z,10.70
2023-02-19T11:46:46.853Z,10.80
2023-02-19T11:49:41.224Z,10.80
2023-02-19T11:52:23.997Z,10.70
2023-02-19T11:55:18.022Z,10.80
2023-02-19T11:57:54.975Z,10.80
2023-02-19T12:00:29.187Z,10.80
2023-02-19T12:03:15.572Z,10.90
2023-02-19T12:05:42.257Z,11.00
2023-02-19T12:08:29.776Z,11.00
2023-02-19T12:11:27.316Z,11.00
2023-02-19T12:14:31.778Z,11.10
2023-02-19T12:17:19.840Z,11.20
2023-02-19T12:19:57.003Z,11.40
2023-02-19T12:22:33.610Z,11.40
2023-02-19T12:25:25.284Z,11.40
2023-02-19T12:27:54.947Z,11.50
2023-02-19T12:30:58.717Z,11.40
2023-02-19T12:33:33.788Z,11.40
2023-02-19T12:36:03.052Z,11.30
2023-02-19T12:38:37.063Z,11.40
2023-02-19T12:41:03.666Z,11.60
2023-02-19T12:43:30.399Z,11.50
2023-02-19T12:46:03.003Z,11.70
2023-02-19T12:48:38.716Z,11.70
2023-02-19T12:51:06.715Z,11.80
2023-02-19T12:53:44.831Z,11.80
2023-02-19T12:56:48.374Z,11.90
2023-02-19T12:59:24.641Z,12.00
2023-02-19T13:01:59.169Z,12.00
2023-02-19T13:04:53.717Z,12.10
2023-02-19T13:07:23.401Z,11.90
2023-02-19T13:10:00.773Z,11.90
2023-02-19T13:12:30.499Z,11.90
2023-02-19T13:14:59.000Z,12.00
2023-02-19T13:17:41.489Z,11.90
2023-02-19T13:20:32.691Z,12.10
2023-02-19T13:23:50.258Z,12.10
2023-02-19T13:26:29.719Z,12.20
2023-02-19T13:29:16.690Z,12.30
2023-02-19T13:32:01.638Z,12.20
2023-02-19T13:34:58.792Z,12.10
2023-02-19T13:37:25.489Z,12.20
2023-02-19T13:39:53.237Z,12.20
2023-02-19T13:42:27.692Z,12.20
2023-02-19T13:44:57.971Z,12.30
2023-02-19T13:47:59.756Z,12.30
2023-02-19T13:50:31.177Z,12.40
2023-02-19T13:52:59.120Z,12.40
2023-02-19T13:55:46.543Z,12.50
2023-02-19T13:58:35.912Z,12.40
2023-02-19T14:01:12.508Z,12.30
2023-02-19T14:03:40.627Z,12.20
2023-02-19T14:06:08.525Z,12.10
2023-02-19T14:08:57.216Z,12.10
2023-02-19T14:11:42.384Z,12.20
2023-02-19T14:14:24.002Z,12.20
2023-02-19T14:16:52.889Z,12.30
2023-02-19T14:19:42.626Z,12.30
2023-02-19T14:23:01.574Z,12.40
2023-02-19T14:25:28.688Z,12.30
2023-02-19T14:28:18.016Z,12.40
2023-02-19T14:31:11.334Z,12.50
2023-02-19T14:33:46.128Z,12.60
2023-02-19T14:36:54.302Z,12.70
2023-02-19T14:39:24.472Z,12.60
2023-02-19T14:41:52.485Z,12.60
2023-02-19T14:44:24.954Z,12.60
2023-02-19T14:46:54.831Z,12.60
2023-02-19T14:49:26.161Z,12.70
2023-02-19T14:51:56.144Z,12.80
2023-02-19T14:54:44.248Z,12.80
2023-02-19T14:57:20.553Z,12.80
2023-02-19T14:59:55.525Z,13.00
2023-02-19T15:02:23.953Z,13.10
2023-02-19T15:04:50.706Z,13.20
2023-02-19T15:07:31.880Z,13.20
2023-02-19T15:10:05.394Z,13.10
2023-02-19T15:12:43.501Z,13.30
2023-02-19T15:15:21.250Z,13.40
2023-02-19T15:17:47.952Z,13.60
2023-02-19T15:20:25.602Z,13.80
2023-02-19T15:22:53.110Z,14.10
2023-02-19T15:25:23.995Z,14.30
2023-02-19T15:27:50.673Z,14.50
2023-02-19T15:30:29.308Z,14.70
2023-02-19T15:32:57.536Z,15.00
2023-02-19T15:35:25.201Z,15.50
2023-02-19T15:37:52.260Z,16.00
2023-02-19T15:40:19.793Z,16.30
2023-02-19T15:42:46.882Z,16.70
2023-02-19T15:45:43.005Z,16.60
2023-02-19T15:48:18.485Z,16.80
2023-02-19T15:50:50.475Z,16.70
2023-02-19T15:53:22.107Z,16.40
2023-02-19T15:56:02.778Z,16.60
2023-02-19T15:58:40.533Z,16.60
2023-02-19T16:01:20.092Z,16.90
2023-02-19T16:03:46.910Z,17.20
2023-02-19T16:06:17.881Z,17.40
2023-02-19T16:09:05.676Z,17.60
2023-02-19T16:11:36.274Z,17.80
2023-02-19T16:14:19.230Z,17.70
2023-02-19T16:16:46.721Z,17.70
2023-02-19T16:19:13.450Z,17.50
2023-02-19T16:21:42.454Z,17.40
2023-02-19T16:24:31.248Z,17.10
2023-02-19T16:27:04.120Z,16.80
2023-02-19T16:29:33.125Z,16.50
2023-02-19T16:32:10.554Z,16.40
2023-02-19T16:34:46.792Z,16.30
2023-02-19T16:37:35.491Z,16.10
2023-02-19T16:40:08.355Z,15.70
2023-02-19T16:42:57.543Z,15.30
2023-02-19T16:45:26.516Z,15.00
2023-02-19T16:47:54.214Z,14.60
2023-02-19T16:50:26.754Z,14.40
2023-02-19T16:52:57.800Z,14.10
2023-02-19T16:55:25.077Z,13.90
2023-02-19T16:57:51.906Z,13.70
2023-02-19T17:00:26.961Z,13.60
2023-02-19T17:03:02.498Z,13.40
2023-02-19T17:05:29.634Z,13.30
2023-02-19T17:07:56.624Z,13.20
2023-02-19T17:10:24.778Z,13.10
2023-02-19T17:12:52.264Z,13.10
2023-02-19T17:15:19.065Z,13.00
2023-02-19T17:17:45.838Z,12.90
2023-02-19T17:20:27.570Z,12.80
2023-02-19T17:22:55.277Z,12.80
2023-02-19T17:25:22.181Z,12.70
2023-02-19T17:27:49.030Z,12.60
2023-02-19T17:30:19.102Z,12.60
2023-02-19T17:32:45.749Z,12.50
2023-02-19T17:35:13.614Z,12.40
2023-02-19T17:37:40.424Z,12.30
2023-02-19T17:40:33.388Z,12.20
2023-02-19T17:43:01.087Z,12.20
2023-02-19T17:45:27.834Z,12.10
2023-02-19T17:47:54.605Z,12.00
2023-02-19T17:50:23.243Z,12.00
2023-02-19T17:52:50.004Z,11.90
2023-02-19T17:55:18.396Z,11.80
2023-02-19T17:57:48.755Z,11.80
2023-02-19T18:00:17.026Z,11.70
2023-02-19T18:02:43.793Z,11.60
2023-02-19T18:05:10.503Z,11.60
2023-02-19T18:07:38.423Z,11.50
2023-02-19T18:10:05.980Z,11.50
2023-02-19T18:12:32.654Z,11.50
2023-02-19T18:14:59.364Z,11.40
2023-02-19T18:17:26.298Z,11.40
2023-02-19T18:19:53.330Z,11.30
2023-02-19T18:22:20.199Z,11.30
2023-02-19T18:24:48.076Z,11.20
2023-02-19T18:27:15.000Z,11.10
2023-02-19T18:29:41.795Z,11.10
2023-02-19T18:32:08.640Z,11.00
2023-02-19T18:34:35.403Z,10.90
2023-02-19T18:37:02.163Z,10.80
2023-02-19T18:39:28.854Z,10.80
2023-02-19T18:41:57.753Z,10.70
2023-02-19T18:44:25.153Z,10.70
2023-02-19T18:46:52.179Z,10.70
2023-02-19T18:49:19.071Z,10.60
2023-02-19T18:51:46.970Z,10.60
2023-02-19T18:54:13.745Z,10.50
2023-02-19T18:56:43.945Z,10.50
2023-02-19T18:59:10.726Z,10.50
2023-02-19T19:01:37.522Z,10.50
2023-02-19T19:04:04.603Z,10.40
2023-02-19T19:06:31.443Z,10.40
2023-02-19T19:08:58.528Z,10.40
2023-02-19T19:11:25.814Z,10.30
2023-02-19T19:13:52.749Z,10.30
2023-02-19T19:16:23.188Z,10.30
2023-02-19T19:18:49.970Z,10.30
2023-02-19T19:21:16.936Z,10.20
2023-02-19T19:23:43.680Z,10.20
2023-02-19T19:26:11.372Z,10.20
2023-02-19T19:28:44.169Z,10.20
2023-02-19T19:31:15.045Z,10.20
2023-02-19T19:33:42.272Z,10.20
2023-02-19T19:36:09.527Z,10.10
2023-02-19T19:38:36.274Z,10.10
2023-02-19T19:41:04.044Z,10.10
2023-02-19T19:43:31.366Z,10.10
2023-02-19T19:45:58.337Z,10.10
2023-02-19T19:48:27.490Z,10.10
2023-02-19T19:50:54.579Z,10.10
2023-02-19T19:53:21.432Z,10.00
2023-02-19T19:55:48.131Z,10.00
2023-02-19T19:58:16.732Z,9.90
2023-02-19T20:00:43.461Z,9.90
2023-02-19T20:03:10.220Z,9.90
2023-02-19T20:05:36.987Z,9.80
2023-02-19T20:08:03.847Z,9.70
2023-02-19T20:10:30.594Z,9.70
2023-02-19T20:12:57.298Z,9.60
2023-02-19T20:15:24.034Z,9.60
2023-02-19T20:17:50.723Z,9.50
2023-02-19T20:20:18.897Z,9.50
2023-02-19T20:22:46.116Z,9.50
2023-02-19T20:25:13.072Z,9.50
2023-02-19T20:27:40.028Z,9.40
2023-02-19T20:30:08.783Z,9.30
2023-02-19T20:32:37.008Z,9.30
2023-02-19T20:35:03.763Z,9.30
2023-02-19T20:37:30.516Z,9.30
2023-02-19T20:39:57.310Z,9.20
2023-02-19T20:42:23.965Z,9.20
2023-02-19T20:44:50.907Z,9.20
2023-02-19T20:47:17.846Z,9.20
2023-02-19T20:49:46.090Z,9.20
2023-02-19T20:52:14.451Z,9.10
2023-02-19T20:54:42.708Z,9.10
2023-02-19T20:57:09.544Z,9.10
2023-02-19T20:59:36.265Z,9.10
2023-02-19T21:02:06.984Z,9.10
2023-02-19T21:04:33.711Z,9.00
2023-02-19T21:07:00.445Z,9.00
2023-02-19T21:09:27.169Z,9.00
2023-02-19T21:11:54.409Z,9.00
2023-02-19T21:14:21.174Z,9.00
2023-02-19T21:16:47.840Z,9.00
2023-02-19T21:19:14.663Z,8.90
2023-02-19T21:21:41.467Z,8.90
2023-02-19T21:24:09.243Z,9.00
2023-02-19T21:26:37.279Z,8.90
2023-02-19T21:29:05.470Z,8.90
2023-02-19T21:31:40.274Z,8.90
2023-02-19T21:34:08.183Z,8.90
2023-02-19T21:36:38.186Z,8.90
2023-02-19T21:39:05.542Z,8.90
2023-02-19T21:41:34.618Z,8.90
2023-02-19T21:44:01.433Z,8.80
2023-02-19T21:46:30.097Z,8.80
2023-02-19T21:48:56.951Z,8.80
2023-02-19T21:51:29.194Z,8.80
2023-02-19T21:53:56.207Z,8.70
2023-02-19T21:56:23.922Z,8.70
2023-02-19T21:58:54.046Z,8.70
2023-02-19T22:01:39.238Z,8.70
2023-02-19T22:04:07.117Z,8.60
2023-02-19T22:06:36.121Z,8.60
2023-02-19T22:09:05.168Z,8.60
2023-02-19T22:11:34.907Z,8.60
2023-02-19T22:14:03.361Z,8.60
2023-02-19T22:16:31.313Z,8.60
2023-02-19T22:18:58.810Z,8.60
2023-02-19T22:21:27.421Z,8.50
2023-02-19T22:23:54.363Z,8.50
2023-02-19T22:26:28.419Z,8.50
2023-02-19T22:28:55.045Z,8.50
2023-02-19T22:31:22.811Z,8.40
2023-02-19T22:33:50.968Z,8.30
2023-02-19T22:36:28.323Z,8.30
2023-02-19T22:38:55.247Z,8.30
2023-02-19T22:41:22.098Z,8.20
2023-02-19T22:43:48.890Z,8.20
2023-02-19T22:46:18.850Z,8.20
2023-02-19T22:48:45.996Z,8.20
2023-02-19T22:51:13.826Z,8.20
2023-02-19T22:53:47.170Z,8.10
2023-02-19T22:56:17.021Z,8.10
2023-02-19T22:58:43.736Z,8.10
2023-02-19T23:01:11.323Z,8.00
2023-02-19T23:03:47.842Z,8.00
2023-02-19T23:06:15.068Z,8.00
2023-02-19T23:08:42.888Z,8.00
2023-02-19T23:11:13.511Z,8.00
2023-02-19T23:13:43.009Z,7.90
2023-02-19T23:16:09.942Z,7.90
2023-02-19T23:18:36.840Z,7.80
2023-02-19T23:21:03.557Z,7.90
2023-02-19T23:23:30.240Z,7.80
2023-02-19T23:25:56.943Z,7.80
2023-02-19T23:28:24.393Z,7.80
2023-02-19T23:30:51.136Z,7.70
2023-02-19T23:33:17.952Z,7.70
2023-02-19T23:35:44.679Z,7.60
2023-02-19T23:38:11.802Z,7.60
2023-02-19T23:40:38.648Z,7.60
2023-02-19T23:43:05.336Z,7.60
2023-02-19T23:45:32.038Z,7.60
2023-02-19T23:47:58.765Z,7.50
2023-02-19T23:50:27.973Z,7.50
2023-02-19T23:52:56.785Z,7.50
2023-02-19T23:55:23.529Z,7.50
2023-02-19T23:57:55.281Z,7.40
